sensor_id;sensor_type;location;lat;lon;timestamp;pressure;altitude;pressure_sealevel;temperature;humidity
82418;BME280;75985;53.734;10.260;2024-02-04T00:03:00;101195.95;;;5.10;84.45
82418;BME280;75985;53.734;10.260;2024-02-04T00:06:05;101185.58;;;5.08;84.39
82418;BME280;75985;53.734;10.260;2024-02-04T00:09:09;101184.22;;;5.00;84.57
82418;BME280;75985;53.734;10.260;2024-02-04T00:12:14;101182.25;;;4.96;84.86
82418;BME280;75985;53.734;10.260;2024-02-04T00:15:19;101192.31;;;4.93;84.94
82418;BME280;75985;53.734;10.260;2024-02-04T00:18:23;101179.48;;;4.93;85.11
82418;BME280;75985;53.734;10.260;2024-02-04T00:21:28;101178.89;;;4.90;84.97
82418;BME280;75985;53.734;10.260;2024-02-04T00:24:32;101173.84;;;4.85;85.04
82418;BME280;75985;53.734;10.260;2024-02-04T00:27:37;101176.91;;;4.79;85.18
82418;BME280;75985;53.734;10.260;2024-02-04T00:30:42;101181.55;;;4.78;85.17
82418;BME280;75985;53.734;10.260;2024-02-04T00:33:46;101185.88;;;4.79;85.12
82418;BME280;75985;53.734;10.260;2024-02-04T00:36:51;101189.45;;;4.81;85.10
82418;BME280;75985;53.734;10.260;2024-02-04T00:39:55;101173.94;;;4.86;84.92
82418;BME280;75985;53.734;10.260;2024-02-04T00:43:00;101169.71;;;4.87;84.90
82418;BME280;75985;53.734;10.260;2024-02-04T00:46:04;101164.28;;;4.82;85.03
82418;BME280;75985;53.734;10.260;2024-02-04T00:49:10;101161.33;;;4.83;85.21
82418;BME280;75985;53.734;10.260;2024-02-04T00:52:14;101145.14;;;4.84;85.09
82418;BME280;75985;53.734;10.260;2024-02-04T00:55:21;101141.49;;;4.87;85.07
82418;BME280;75985;53.734;10.260;2024-02-04T00:58:25;101130.05;;;4.88;84.97
82418;BME280;75985;53.734;10.260;2024-02-04T01:01:30;101124.03;;;4.81;85.14
82418;BME280;75985;53.734;10.260;2024-02-04T01:04:34;101130.84;;;4.74;85.67
82418;BME280;75985;53.734;10.260;2024-02-04T01:07:39;101125.41;;;4.69;85.94
82418;BME280;75985;53.734;10.260;2024-02-04T01:10:43;101136.27;;;4.65;86.22
82418;BME280;75985;53.734;10.260;2024-02-04T01:13:48;101126.70;;;4.62;86.46
82418;BME280;75985;53.734;10.260;2024-02-04T01:16:52;101125.22;;;4.59;86.64
82418;BME280;75985;53.734;10.260;2024-02-04T01:19:56;101123.07;;;4.59;86.72
82418;BME280;75985;53.734;10.260;2024-02-04T01:23:01;101133.71;;;4.58;86.89
82418;BME280;75985;53.734;10.260;2024-02-04T01:26:06;101125.70;;;4.60;86.89
82418;BME280;75985;53.734;10.260;2024-02-04T01:29:10;101132.31;;;4.63;86.82
82418;BME280;75985;53.734;10.260;2024-02-04T01:32:14;101130.54;;;4.69;86.50
82418;BME280;75985;53.734;10.260;2024-02-04T01:35:19;101131.64;;;4.73;86.27
82418;BME280;75985;53.734;10.260;2024-02-04T01:38:24;101116.84;;;4.75;86.13
82418;BME280;75985;53.734;10.260;2024-02-04T01:41:28;101118.80;;;4.80;86.00
82418;BME280;75985;53.734;10.260;2024-02-04T01:44:33;101105.76;;;4.83;85.78
82418;BME280;75985;53.734;10.260;2024-02-04T01:47:37;101120.27;;;4.89;85.42
82418;BME280;75985;53.734;10.260;2024-02-04T01:50:42;101118.86;;;4.95;85.03
82418;BME280;75985;53.734;10.260;2024-02-04T01:53:49;101119.16;;;4.99;84.86
82418;BME280;75985;53.734;10.260;2024-02-04T01:56:55;101126.45;;;5.07;84.33
82418;BME280;75985;53.734;10.260;2024-02-04T02:00:00;101123.86;;;5.13;84.08
82418;BME280;75985;53.734;10.260;2024-02-04T02:03:07;101116.45;;;5.18;83.72
82418;BME280;75985;53.734;10.260;2024-02-04T02:06:13;101122.27;;;5.22;83.52
82418;BME280;75985;53.734;10.260;2024-02-04T02:09:19;101108.59;;;5.30;82.77
82418;BME280;75985;53.734;10.260;2024-02-04T02:12:34;101109.27;;;5.34;82.68
82418;BME280;75985;53.734;10.260;2024-02-04T02:15:47;101107.70;;;5.36;82.80
82418;BME280;75985;53.734;10.260;2024-02-04T02:18:49;101104.81;;;5.38;82.53
82418;BME280;75985;53.734;10.260;2024-02-04T02:21:56;101104.71;;;5.44;82.11
82418;BME280;75985;53.734;10.260;2024-02-04T02:25:03;101099.77;;;5.47;82.12
82418;BME280;75985;53.734;10.260;2024-02-04T02:28:08;101102.81;;;5.48;82.14
82418;BME280;75985;53.734;10.260;2024-02-04T02:31:14;101096.59;;;5.51;81.95
82418;BME280;75985;53.734;10.260;2024-02-04T02:34:19;101094.41;;;5.50;82.01
82418;BME280;75985;53.734;10.260;2024-02-04T02:37:36;101091.73;;;5.49;81.85
82418;BME280;75985;53.734;10.260;2024-02-04T02:40:57;101087.45;;;5.41;82.22
82418;BME280;75985;53.734;10.260;2024-02-04T02:43:56;101093.70;;;5.31;82.68
82418;BME280;75985;53.734;10.260;2024-02-04T02:47:03;101084.44;;;5.26;82.88
82418;BME280;75985;53.734;10.260;2024-02-04T02:50:09;101085.91;;;5.23;83.01
82418;BME280;75985;53.734;10.260;2024-02-04T02:53:14;101074.58;;;5.19;83.19
82418;BME280;75985;53.734;10.260;2024-02-04T02:56:19;101071.12;;;5.19;83.24
82418;BME280;75985;53.734;10.260;2024-02-04T02:59:24;101074.80;;;5.16;83.33
82418;BME280;75985;53.734;10.260;2024-02-04T03:02:28;101063.73;;;5.17;83.32
82418;BME280;75985;53.734;10.260;2024-02-04T03:05:33;101064.22;;;5.18;83.37
82418;BME280;75985;53.734;10.260;2024-02-04T03:08:38;101060.37;;;5.18;83.34
82418;BME280;75985;53.734;10.260;2024-02-04T03:11:43;101066.20;;;5.15;83.44
82418;BME280;75985;53.734;10.260;2024-02-04T03:14:49;101053.41;;;5.08;83.67
82418;BME280;75985;53.734;10.260;2024-02-04T03:17:53;101048.20;;;5.00;84.04
82418;BME280;75985;53.734;10.260;2024-02-04T03:20:58;101038.14;;;4.96;84.23
82418;BME280;75985;53.734;10.260;2024-02-04T03:24:03;101028.28;;;4.96;84.26
82418;BME280;75985;53.734;10.260;2024-02-04T03:27:07;101023.31;;;4.99;84.01
82418;BME280;75985;53.734;10.260;2024-02-04T03:30:12;101026.39;;;4.93;84.27
82418;BME280;75985;53.734;10.260;2024-02-04T03:33:17;101027.88;;;4.96;84.25
82418;BME280;75985;53.734;10.260;2024-02-04T03:36:24;101033.00;;;4.96;84.21
82418;BME280;75985;53.734;10.260;2024-02-04T03:39:28;101034.09;;;4.93;84.48
82418;BME280;75985;53.734;10.260;2024-02-04T03:42:33;101036.47;;;4.97;84.40
82418;BME280;75985;53.734;10.260;2024-02-04T03:45:38;101035.86;;;5.01;84.25
82418;BME280;75985;53.734;10.260;2024-02-04T03:48:43;101027.74;;;5.01;84.18
82418;BME280;75985;53.734;10.260;2024-02-04T03:51:48;101026.69;;;4.98;84.25
82418;BME280;75985;53.734;10.260;2024-02-04T03:54:53;101022.77;;;4.89;84.65
82418;BME280;75985;53.734;10.260;2024-02-04T03:57:58;101012.12;;;4.83;84.76
82418;BME280;75985;53.734;10.260;2024-02-04T04:01:02;101010.86;;;4.76;85.09
82418;BME280;75985;53.734;10.260;2024-02-04T04:04:07;101011.86;;;4.72;85.47
82418;BME280;75985;53.734;10.260;2024-02-04T04:07:11;101013.36;;;4.68;85.48
82418;BME280;75985;53.734;10.260;2024-02-04T04:10:16;101011.27;;;4.69;85.58
82418;BME280;75985;53.734;10.260;2024-02-04T04:13:20;101002.87;;;4.72;85.48
82418;BME280;75985;53.734;10.260;2024-02-04T04:16:25;101011.56;;;4.74;85.46
82418;BME280;75985;53.734;10.260;2024-02-04T04:19:29;101012.08;;;4.68;85.68
82418;BME280;75985;53.734;10.260;2024-02-04T04:22:38;101017.33;;;4.63;86.02
82418;BME280;75985;53.734;10.260;2024-02-04T04:25:42;101006.07;;;4.61;86.31
82418;BME280;75985;53.734;10.260;2024-02-04T04:28:46;101003.83;;;4.59;86.37
82418;BME280;75985;53.734;10.260;2024-02-04T04:31:51;100997.98;;;4.55;86.61
82418;BME280;75985;53.734;10.260;2024-02-04T04:34:55;101003.33;;;4.51;86.85
82418;BME280;75985;53.734;10.260;2024-02-04T04:38:00;101009.74;;;4.51;87.05
82418;BME280;75985;53.734;10.260;2024-02-04T04:41:04;101010.23;;;4.52;87.16
82418;BME280;75985;53.734;10.260;2024-02-04T04:44:09;101012.19;;;4.56;87.08
82418;BME280;75985;53.734;10.260;2024-02-04T04:47:15;101011.91;;;4.58;87.15
82418;BME280;75985;53.734;10.260;2024-02-04T04:50:20;100998.09;;;4.63;87.03
82418;BME280;75985;53.734;10.260;2024-02-04T04:53:25;101000.05;;;4.67;87.02
82418;BME280;75985;53.734;10.260;2024-02-04T04:56:30;100994.00;;;4.73;86.84
82418;BME280;75985;53.734;10.260;2024-02-04T04:59:34;100991.72;;;4.78;86.63
82418;BME280;75985;53.734;10.260;2024-02-04T05:02:40;100979.98;;;4.75;86.78
82418;BME280;75985;53.734;10.260;2024-02-04T05:05:47;100970.91;;;4.73;86.98
82418;BME280;75985;53.734;10.260;2024-02-04T05:08:51;100974.98;;;4.70;87.12
82418;BME280;75985;53.734;10.260;2024-02-04T05:11:56;100972.22;;;4.67;87.22
82418;BME280;75985;53.734;10.260;2024-02-04T05:15:00;100972.52;;;4.65;87.45
82418;BME280;75985;53.734;10.260;2024-02-04T05:18:05;100965.62;;;4.63;87.55
82418;BME280;75985;53.734;10.260;2024-02-04T05:21:10;100957.06;;;4.63;87.68
82418;BME280;75985;53.734;10.260;2024-02-04T05:24:15;100948.08;;;4.63;87.74
82418;BME280;75985;53.734;10.260;2024-02-04T05:27:19;100964.53;;;4.67;87.60
82418;BME280;75985;53.734;10.260;2024-02-04T05:30:24;100961.97;;;4.67;87.70
82418;BME280;75985;53.734;10.260;2024-02-04T05:33:28;100958.22;;;4.68;87.57
82418;BME280;75985;53.734;10.260;2024-02-04T05:36:33;100959.59;;;4.70;87.53
82418;BME280;75985;53.734;10.260;2024-02-04T05:39:37;100950.30;;;4.72;87.51
82418;BME280;75985;53.734;10.260;2024-02-04T05:42:42;100945.68;;;4.73;87.50
82418;BME280;75985;53.734;10.260;2024-02-04T05:45:46;100957.22;;;4.73;87.52
82418;BME280;75985;53.734;10.260;2024-02-04T05:48:51;100949.20;;;4.75;87.43
82418;BME280;75985;53.734;10.260;2024-02-04T05:51:55;100950.91;;;4.74;87.44
82418;BME280;75985;53.734;10.260;2024-02-04T05:55:00;100935.00;;;4.73;87.45
82418;BME280;75985;53.734;10.260;2024-02-04T05:58:04;100940.64;;;4.74;87.52
82418;BME280;75985;53.734;10.260;2024-02-04T06:01:09;100937.66;;;4.75;87.51
82418;BME280;75985;53.734;10.260;2024-02-04T06:04:13;100935.09;;;4.75;87.52
82418;BME280;75985;53.734;10.260;2024-02-04T06:07:18;100943.21;;;4.74;87.53
82418;BME280;75985;53.734;10.260;2024-02-04T06:10:22;100947.83;;;4.73;87.62
82418;BME280;75985;53.734;10.260;2024-02-04T06:13:27;100950.01;;;4.74;87.70
82418;BME280;75985;53.734;10.260;2024-02-04T06:16:31;100955.14;;;4.74;87.60
82418;BME280;75985;53.734;10.260;2024-02-04T06:19:37;100948.82;;;4.75;87.66
82418;BME280;75985;53.734;10.260;2024-02-04T06:22:42;100945.94;;;4.78;87.62
82418;BME280;75985;53.734;10.260;2024-02-04T06:25:46;100934.00;;;4.78;87.60
82418;BME280;75985;53.734;10.260;2024-02-04T06:28:51;100935.29;;;4.78;87.61
82418;BME280;75985;53.734;10.260;2024-02-04T06:31:56;100935.29;;;4.78;87.69
82418;BME280;75985;53.734;10.260;2024-02-04T06:35:00;100924.94;;;4.76;87.71
82418;BME280;75985;53.734;10.260;2024-02-04T06:38:06;100916.44;;;4.78;87.62
82418;BME280;75985;53.734;10.260;2024-02-04T06:41:10;100921.89;;;4.75;87.75
82418;BME280;75985;53.734;10.260;2024-02-04T06:44:15;100913.20;;;4.73;87.83
82418;BME280;75985;53.734;10.260;2024-02-04T06:47:20;100907.02;;;4.70;87.97
82418;BME280;75985;53.734;10.260;2024-02-04T06:50:24;100901.98;;;4.71;87.98
82418;BME280;75985;53.734;10.260;2024-02-04T06:53:29;100904.31;;;4.75;87.88
82418;BME280;75985;53.734;10.260;2024-02-04T06:56:33;100907.45;;;4.78;87.78
82418;BME280;75985;53.734;10.260;2024-02-04T06:59:40;100899.57;;;4.81;87.71
82418;BME280;75985;53.734;10.260;2024-02-04T07:02:44;100893.73;;;4.84;87.46
82418;BME280;75985;53.734;10.260;2024-02-04T07:05:49;100907.93;;;4.85;87.34
82418;BME280;75985;53.734;10.260;2024-02-04T07:08:53;100896.77;;;4.85;87.30
82418;BME280;75985;53.734;10.260;2024-02-04T07:11:58;100880.91;;;4.84;87.35
82418;BME280;75985;53.734;10.260;2024-02-04T07:15:02;100877.95;;;4.84;87.35
82418;BME280;75985;53.734;10.260;2024-02-04T07:18:07;100887.31;;;4.84;87.35
82418;BME280;75985;53.734;10.260;2024-02-04T07:21:11;100886.03;;;4.84;87.35
82418;BME280;75985;53.734;10.260;2024-02-04T07:24:16;100890.78;;;4.84;87.24
82418;BME280;75985;53.734;10.260;2024-02-04T07:27:22;100879.90;;;4.88;86.85
82418;BME280;75985;53.734;10.260;2024-02-04T07:30:26;100892.88;;;4.92;86.83
82418;BME280;75985;53.734;10.260;2024-02-04T07:33:32;100886.66;;;4.95;86.55
82418;BME280;75985;53.734;10.260;2024-02-04T07:36:36;100873.44;;;4.95;86.50
82418;BME280;75985;53.734;10.260;2024-02-04T07:39:41;100881.05;;;4.94;86.64
82418;BME280;75985;53.734;10.260;2024-02-04T07:42:45;100871.17;;;4.93;86.77
82418;BME280;75985;53.734;10.260;2024-02-04T07:45:50;100868.22;;;4.94;86.67
82418;BME280;75985;53.734;10.260;2024-02-04T07:48:54;100868.13;;;4.92;86.71
82418;BME280;75985;53.734;10.260;2024-02-04T07:51:58;100869.50;;;4.94;86.67
82418;BME280;75985;53.734;10.260;2024-02-04T07:55:03;100875.11;;;4.95;86.69
82418;BME280;75985;53.734;10.260;2024-02-04T07:58:08;100884.59;;;4.96;86.48
82418;BME280;75985;53.734;10.260;2024-02-04T08:01:12;100898.39;;;4.98;86.48
82418;BME280;75985;53.734;10.260;2024-02-04T08:04:17;100883.47;;;4.99;86.39
82418;BME280;75985;53.734;10.260;2024-02-04T08:07:22;100890.87;;;5.01;86.40
82418;BME280;75985;53.734;10.260;2024-02-04T08:10:27;100883.75;;;5.04;86.15
82418;BME280;75985;53.734;10.260;2024-02-04T08:13:31;100883.45;;;5.06;86.00
82418;BME280;75985;53.734;10.260;2024-02-04T08:16:36;100879.85;;;5.10;86.01
82418;BME280;75985;53.734;10.260;2024-02-04T08:19:41;100887.26;;;5.12;85.97
82418;BME280;75985;53.734;10.260;2024-02-04T08:22:46;100888.78;;;5.17;85.76
82418;BME280;75985;53.734;10.260;2024-02-04T08:25:50;100881.17;;;5.19;85.68
82418;BME280;75985;53.734;10.260;2024-02-04T08:28:55;100886.97;;;5.23;85.71
82418;BME280;75985;53.734;10.260;2024-02-04T08:31:59;100879.96;;;5.27;85.59
82418;BME280;75985;53.734;10.260;2024-02-04T08:35:04;100880.02;;;5.28;85.21
82418;BME280;75985;53.734;10.260;2024-02-04T08:38:09;100868.65;;;5.32;84.77
82418;BME280;75985;53.734;10.260;2024-02-04T08:41:14;100887.19;;;5.34;84.88
82418;BME280;75985;53.734;10.260;2024-02-04T08:44:18;100893.22;;;5.35;84.87
82418;BME280;75985;53.734;10.260;2024-02-04T08:47:23;100880.00;;;5.35;84.91
82418;BME280;75985;53.734;10.260;2024-02-04T08:50:27;100887.45;;;5.39;84.78
82418;BME280;75985;53.734;10.260;2024-02-04T08:53:32;100874.00;;;5.43;84.65
82418;BME280;75985;53.734;10.260;2024-02-04T08:56:36;100866.30;;;5.43;84.35
82418;BME280;75985;53.734;10.260;2024-02-04T08:59:41;100865.99;;;5.45;84.30
82418;BME280;75985;53.734;10.260;2024-02-04T09:02:46;100871.79;;;5.49;84.28
82418;BME280;75985;53.734;10.260;2024-02-04T09:05:50;100866.73;;;5.51;84.16
82418;BME280;75985;53.734;10.260;2024-02-04T09:08:55;100872.92;;;5.55;83.56
82418;BME280;75985;53.734;10.260;2024-02-04T09:11:59;100856.02;;;5.58;83.36
82418;BME280;75985;53.734;10.260;2024-02-04T09:15:04;100856.16;;;5.61;83.36
82418;BME280;75985;53.734;10.260;2024-02-04T09:18:09;100852.91;;;5.64;83.28
82418;BME280;75985;53.734;10.260;2024-02-04T09:21:14;100869.83;;;5.69;83.29
82418;BME280;75985;53.734;10.260;2024-02-04T09:24:18;100857.80;;;5.68;82.91
82418;BME280;75985;53.734;10.260;2024-02-04T09:27:23;100850.00;;;5.66;83.11
82418;BME280;75985;53.734;10.260;2024-02-04T09:30:28;100851.47;;;5.69;82.93
82418;BME280;75985;53.734;10.260;2024-02-04T09:33:33;100849.45;;;5.72;82.75
82418;BME280;75985;53.734;10.260;2024-02-04T09:36:38;100846.73;;;5.77;82.71
82418;BME280;75985;53.734;10.260;2024-02-04T09:39:43;100846.43;;;5.79;82.61
82418;BME280;75985;53.734;10.260;2024-02-04T09:42:47;100846.91;;;5.80;82.71
82418;BME280;75985;53.734;10.260;2024-02-04T09:45:52;100861.13;;;5.82;82.45
82418;BME280;75985;53.734;10.260;2024-02-04T09:48:57;100851.66;;;5.81;82.08
82418;BME280;75985;53.734;10.260;2024-02-04T09:52:05;100845.23;;;5.81;82.28
82418;BME280;75985;53.734;10.260;2024-02-04T09:55:10;100855.98;;;5.82;82.29
82418;BME280;75985;53.734;10.260;2024-02-04T09:58:16;100853.11;;;5.84;81.91
82418;BME280;75985;53.734;10.260;2024-02-04T10:01:21;100848.45;;;5.85;81.67
82418;BME280;75985;53.734;10.260;2024-02-04T10:04:26;100864.81;;;5.87;81.66
82418;BME280;75985;53.734;10.260;2024-02-04T10:07:31;100849.09;;;5.89;81.50
82418;BME280;75985;53.734;10.260;2024-02-04T10:10:35;100833.04;;;5.93;81.38
82418;BME280;75985;53.734;10.260;2024-02-04T10:13:48;100838.74;;;5.96;81.47
82418;BME280;75985;53.734;10.260;2024-02-04T10:16:53;100832.41;;;5.97;81.47
82418;BME280;75985;53.734;10.260;2024-02-04T10:19:58;100847.44;;;5.98;81.45
82418;BME280;75985;53.734;10.260;2024-02-04T10:23:03;100846.23;;;5.99;81.50
82418;BME280;75985;53.734;10.260;2024-02-04T10:26:07;100827.65;;;5.97;81.29
82418;BME280;75985;53.734;10.260;2024-02-04T10:29:12;100818.73;;;6.05;81.11
82418;BME280;75985;53.734;10.260;2024-02-04T10:32:21;100828.03;;;6.11;81.16
82418;BME280;75985;53.734;10.260;2024-02-04T10:35:24;100829.78;;;6.12;80.99
82418;BME280;75985;53.734;10.260;2024-02-04T10:38:29;100833.73;;;6.14;81.12
82418;BME280;75985;53.734;10.260;2024-02-04T10:41:34;100814.95;;;6.15;80.95
82418;BME280;75985;53.734;10.260;2024-02-04T10:44:43;100801.38;;;6.17;80.36
82418;BME280;75985;53.734;10.260;2024-02-04T10:47:53;100809.89;;;6.25;80.33
82418;BME280;75985;53.734;10.260;2024-02-04T10:50:56;100805.47;;;6.30;80.09
82418;BME280;75985;53.734;10.260;2024-02-04T10:54:03;100803.63;;;6.36;79.86
82418;BME280;75985;53.734;10.260;2024-02-04T10:57:12;100791.71;;;6.38;79.42
82418;BME280;75985;53.734;10.260;2024-02-04T11:00:20;100788.91;;;6.42;79.40
82418;BME280;75985;53.734;10.260;2024-02-04T11:03:24;100785.03;;;6.50;79.24
82418;BME280;75985;53.734;10.260;2024-02-04T11:06:32;100784.86;;;6.55;78.90
82418;BME280;75985;53.734;10.260;2024-02-04T11:09:37;100785.91;;;6.59;78.29
82418;BME280;75985;53.734;10.260;2024-02-04T11:12:42;100785.65;;;6.63;78.39
82418;BME280;75985;53.734;10.260;2024-02-04T11:15:48;100785.73;;;6.64;78.03
82418;BME280;75985;53.734;10.260;2024-02-04T11:25:58;100804.21;;;6.65;78.36
82418;BME280;75985;53.734;10.260;2024-02-04T11:28:42;100790.06;;;6.65;78.50
82418;BME280;75985;53.734;10.260;2024-02-04T11:31:47;100788.94;;;6.68;78.81
82418;BME280;75985;53.734;10.260;2024-02-04T11:34:53;100783.13;;;6.73;78.92
82418;BME280;75985;53.734;10.260;2024-02-04T11:38:03;100779.09;;;6.78;78.56
82418;BME280;75985;53.734;10.260;2024-02-04T11:41:08;100776.67;;;6.81;78.69
82418;BME280;75985;53.734;10.260;2024-02-04T11:44:19;100778.30;;;6.79;78.24
82418;BME280;75985;53.734;10.260;2024-02-04T11:47:25;100787.31;;;6.79;78.23
82418;BME280;75985;53.734;10.260;2024-02-04T11:50:30;100777.14;;;6.82;78.35
82418;BME280;75985;53.734;10.260;2024-02-04T11:53:35;100788.57;;;6.87;78.16
82418;BME280;75985;53.734;10.260;2024-02-04T11:56:40;100788.30;;;6.91;78.15
82418;BME280;75985;53.734;10.260;2024-02-04T11:59:45;100788.38;;;6.92;78.18
82418;BME280;75985;53.734;10.260;2024-02-04T12:03:07;100774.23;;;6.92;78.09
82418;BME280;75985;53.734;10.260;2024-02-04T12:06:06;100790.56;;;6.93;77.83
82418;BME280;75985;53.734;10.260;2024-02-04T12:09:12;100783.05;;;6.98;77.95
82418;BME280;75985;53.734;10.260;2024-02-04T12:12:17;100786.75;;;7.03;77.96
82418;BME280;75985;53.734;10.260;2024-02-04T12:15:22;100801.06;;;6.98;77.63
82418;BME280;75985;53.734;10.260;2024-02-04T12:18:26;100777.97;;;6.99;77.54
82418;BME280;75985;53.734;10.260;2024-02-04T12:21:31;100771.38;;;7.04;77.62
82418;BME280;75985;53.734;10.260;2024-02-04T12:24:38;100769.36;;;7.07;77.78
82418;BME280;75985;53.734;10.260;2024-02-04T12:27:43;100778.68;;;7.05;77.59
82418;BME280;75985;53.734;10.260;2024-02-04T12:30:55;100760.58;;;7.03;77.83
82418;BME280;75985;53.734;10.260;2024-02-04T12:34:01;100747.75;;;6.95;77.85
82418;BME280;75985;53.734;10.260;2024-02-04T12:37:06;100754.14;;;7.03;78.10
82418;BME280;75985;53.734;10.260;2024-02-04T12:40:11;100750.52;;;7.08;78.00
82418;BME280;75985;53.734;10.260;2024-02-04T12:43:16;100754.61;;;7.13;77.83
82418;BME280;75985;53.734;10.260;2024-02-04T12:46:21;100754.61;;;7.13;77.72
82418;BME280;75985;53.734;10.260;2024-02-04T12:49:26;100737.80;;;7.11;77.84
82418;BME280;75985;53.734;10.260;2024-02-04T12:52:31;100741.73;;;7.13;78.16
82418;BME280;75985;53.734;10.260;2024-02-04T12:55:37;100755.42;;;7.12;77.69
82418;BME280;75985;53.734;10.260;2024-02-04T12:58:42;100752.89;;;7.13;77.86
82418;BME280;75985;53.734;10.260;2024-02-04T13:01:51;100736.59;;;7.13;77.89
82418;BME280;75985;53.734;10.260;2024-02-04T13:04:54;100740.02;;;7.13;78.01
82418;BME280;75985;53.734;10.260;2024-02-04T13:08:00;100733.66;;;7.15;78.00
82418;BME280;75985;53.734;10.260;2024-02-04T13:11:08;100746.37;;;7.20;77.80
82418;BME280;75985;53.734;10.260;2024-02-04T13:14:13;100748.35;;;7.26;77.30
82418;BME280;75985;53.734;10.260;2024-02-04T13:17:18;100726.58;;;7.29;77.16
82418;BME280;75985;53.734;10.260;2024-02-04T13:20:23;100736.17;;;7.31;77.12
82418;BME280;75985;53.734;10.260;2024-02-04T13:23:27;100730.12;;;7.31;77.08
82418;BME280;75985;53.734;10.260;2024-02-04T13:26:32;100734.88;;;7.31;77.28
82418;BME280;75985;53.734;10.260;2024-02-04T13:29:36;100738.59;;;7.28;77.41
82418;BME280;75985;53.734;10.260;2024-02-04T13:32:41;100739.41;;;7.27;77.54
82418;BME280;75985;53.734;10.260;2024-02-04T13:35:46;100738.17;;;7.29;77.48
82418;BME280;75985;53.734;10.260;2024-02-04T13:38:52;100735.59;;;7.29;77.42
82418;BME280;75985;53.734;10.260;2024-02-04T13:41:56;100747.76;;;7.31;77.37
82418;BME280;75985;53.734;10.260;2024-02-04T13:45:01;100730.67;;;7.33;77.70
82418;BME280;75985;53.734;10.260;2024-02-04T13:48:06;100743.47;;;7.32;77.66
82418;BME280;75985;53.734;10.260;2024-02-04T13:51:11;100740.27;;;7.28;78.00
82418;BME280;75985;53.734;10.260;2024-02-04T13:54:15;100737.55;;;7.25;77.97
82418;BME280;75985;53.734;10.260;2024-02-04T13:57:20;100723.00;;;7.25;77.99
82418;BME280;75985;53.734;10.260;2024-02-04T14:00:25;100725.56;;;7.25;77.65
82418;BME280;75985;53.734;10.260;2024-02-04T14:03:31;100720.20;;;7.20;77.92
82418;BME280;75985;53.734;10.260;2024-02-04T14:06:36;100727.92;;;7.20;78.26
82418;BME280;75985;53.734;10.260;2024-02-04T14:09:40;100707.75;;;7.20;77.92
82418;BME280;75985;53.734;10.260;2024-02-04T14:12:45;100726.02;;;7.16;78.30
82418;BME280;75985;53.734;10.260;2024-02-04T14:15:49;100724.73;;;7.16;78.62
82418;BME280;75985;53.734;10.260;2024-02-04T14:18:55;100716.45;;;7.14;78.60
82418;BME280;75985;53.734;10.260;2024-02-04T14:22:00;100716.53;;;7.15;78.84
82418;BME280;75985;53.734;10.260;2024-02-04T14:25:05;100712.98;;;7.13;78.84
82418;BME280;75985;53.734;10.260;2024-02-04T14:28:09;100717.27;;;7.13;78.63
82418;BME280;75985;53.734;10.260;2024-02-04T14:31:14;100705.77;;;7.14;78.93
82418;BME280;75985;53.734;10.260;2024-02-04T14:34:18;100705.62;;;7.11;79.00
82418;BME280;75985;53.734;10.260;2024-02-04T14:37:23;100709.41;;;7.10;79.39
82418;BME280;75985;53.734;10.260;2024-02-04T14:40:28;100713.54;;;7.06;79.48
82418;BME280;75985;53.734;10.260;2024-02-04T14:43:33;100711.55;;;7.00;79.45
82418;BME280;75985;53.734;10.260;2024-02-04T14:46:38;100707.54;;;6.97;79.81
82418;BME280;75985;53.734;10.260;2024-02-04T14:49:43;100718.89;;;6.92;79.89
82418;BME280;75985;53.734;10.260;2024-02-04T14:52:47;100707.66;;;6.90;80.06
82418;BME280;75985;53.734;10.260;2024-02-04T14:55:53;100718.73;;;6.89;80.18
82418;BME280;75985;53.734;10.260;2024-02-04T14:58:59;100707.51;;;6.87;80.42
82418;BME280;75985;53.734;10.260;2024-02-04T15:02:04;100722.44;;;6.86;81.07
82418;BME280;75985;53.734;10.260;2024-02-04T15:05:09;100735.50;;;6.81;81.39
82418;BME280;75985;53.734;10.260;2024-02-04T15:08:14;100715.58;;;6.77;81.87
82418;BME280;75985;53.734;10.260;2024-02-04T15:11:20;100731.67;;;6.73;82.25
82418;BME280;75985;53.734;10.260;2024-02-04T15:14:24;100721.58;;;6.67;82.51
82418;BME280;75985;53.734;10.260;2024-02-04T15:17:29;100725.75;;;6.65;82.79
82418;BME280;75985;53.734;10.260;2024-02-04T15:20:34;100721.26;;;6.61;82.77
82418;BME280;75985;53.734;10.260;2024-02-04T15:23:40;100703.17;;;6.60;82.79
82418;BME280;75985;53.734;10.260;2024-02-04T15:26:47;100702.70;;;6.59;82.86
82418;BME280;75985;53.734;10.260;2024-02-04T15:29:52;100723.67;;;6.58;82.75
82418;BME280;75985;53.734;10.260;2024-02-04T15:32:59;100712.09;;;6.58;82.86
82418;BME280;75985;53.734;10.260;2024-02-04T15:36:04;100708.23;;;6.58;82.95
82418;BME280;75985;53.734;10.260;2024-02-04T15:39:08;100699.16;;;6.56;82.98
82418;BME280;75985;53.734;10.260;2024-02-04T15:42:14;100707.38;;;6.58;83.00
82418;BME280;75985;53.734;10.260;2024-02-04T15:45:19;100700.44;;;6.56;83.15
82418;BME280;75985;53.734;10.260;2024-02-04T15:48:25;100709.88;;;6.56;83.33
82418;BME280;75985;53.734;10.260;2024-02-04T15:51:32;100693.89;;;6.53;83.33
82418;BME280;75985;53.734;10.260;2024-02-04T15:54:37;100703.28;;;6.53;83.56
82418;BME280;75985;53.734;10.260;2024-02-04T15:57:44;100692.02;;;6.51;83.98
82418;BME280;75985;53.734;10.260;2024-02-04T16:00:49;100693.19;;;6.48;84.37
82418;BME280;75985;53.734;10.260;2024-02-04T16:03:54;100692.13;;;6.44;84.71
82418;BME280;75985;53.734;10.260;2024-02-04T16:06:59;100706.03;;;6.39;85.36
82418;BME280;75985;53.734;10.260;2024-02-04T16:10:04;100696.02;;;6.36;85.63
82418;BME280;75985;53.734;10.260;2024-02-04T16:13:09;100688.88;;;6.30;86.22
82418;BME280;75985;53.734;10.260;2024-02-04T16:16:19;100690.34;;;6.25;86.74